Time;durP1;ratioP1;P1;durP2;ratioP2;P2;SDS_P1;SDS_P2;PMS_P1;PMS_P2;Temp;Humidity;BMP_temperature;BMP_pressure;BME280_temperature;BME280_humidity;BME280_pressure;Samples;Min_cycle;Max_cycle;Signal;HPM_P1;HPM_P2
2021/03/15 00:01:05;;;;;;;;;;;3.90;99.90;;;;;;4936053;28;19918;-76
2021/03/15 00:03:30;;;;;;;;;;;3.90;99.90;;;;;;4941201;28;19954;-76
2021/03/15 00:06:01;;;;;;;;;;;3.90;99.90;;;;;;4958795;28;19961;-76
2021/03/15 00:08:29;;;;;;;;;;;3.90;99.90;;;;;;4937844;28;19914;-76
2021/03/15 00:10:55;;;;;;;;;;;3.90;99.90;;;;;;4940306;28;19918;-76
2021/03/15 00:13:21;;;;;;;;;;;3.90;99.90;;;;;;4940888;28;19910;-76
2021/03/15 00:15:47;;;;;;;;;;;3.90;99.90;;;;;;4936614;28;20432;-76
2021/03/15 00:18:12;;;;;;;;;;;3.90;99.90;;;;;;4936177;28;20700;-76
2021/03/15 00:20:38;;;;;;;;;;;3.90;99.90;;;;;;4923296;28;19914;-76
2021/03/15 00:23:04;;;;;;;;;;;3.90;99.90;;;;;;4959232;28;19950;-76
2021/03/15 00:25:29;;;;;;;;;;;3.90;99.90;;;;;;4956118;28;19910;-76
2021/03/15 00:27:55;;;;;;;;;;;3.90;99.90;;;;;;4940001;28;19950;-76
2021/03/15 00:30:20;;;;;;;;;;;3.80;99.90;;;;;;4954912;28;19920;-76
2021/03/15 00:32:46;;;;;;;;;;;3.80;99.90;;;;;;4939120;28;19925;-76
2021/03/15 00:35:14;;;;;;;;;;;3.90;99.90;;;;;;4955371;28;20474;-76
2021/03/15 00:37:40;;;;;;;;;;;3.90;99.90;;;;;;4953136;28;19965;-76
2021/03/15 00:40:07;;;;;;;;;;;3.90;99.90;;;;;;4955146;28;19914;-76
2021/03/15 00:42:33;;;;;;;;;;;3.90;99.90;;;;;;4938785;28;19929;-76
2021/03/15 00:44:58;;;;;;;;;;;3.90;99.90;;;;;;4959304;28;20256;-76
2021/03/15 00:47:24;;;;;;;;;;;3.90;99.90;;;;;;4938381;28;19973;-76
2021/03/15 00:49:52;;;;;;;;;;;3.80;99.90;;;;;;4937301;28;20469;-76
2021/03/15 00:52:17;;;;;;;;;;;3.80;99.90;;;;;;4926624;28;19972;-76
2021/03/15 00:54:43;;;;;;;;;;;3.80;99.90;;;;;;4955225;28;19910;-76
2021/03/15 00:57:10;;;;;;;;;;;3.70;99.90;;;;;;4955374;28;19918;-76
2021/03/15 00:59:36;;;;;;;;;;;3.70;99.90;;;;;;4938713;28;20420;-76
2021/03/15 01:02:05;;;;;;;;;;;3.60;99.90;;;;;;4956144;28;19918;-77
2021/03/15 01:04:30;;;;;;;;;;;3.60;99.90;;;;;;4949576;28;19923;-76
2021/03/15 01:06:56;;;;;;;;;;;3.60;99.90;;;;;;4952580;28;19922;-76
2021/03/15 01:09:21;;;;;;;;;;;3.60;99.90;;;;;;4968577;28;20275;-76
2021/03/15 01:11:49;;;;;;;;;;;3.60;99.90;;;;;;4968643;28;19920;-76
2021/03/15 01:14:15;;;;;;;;;;;3.60;99.90;;;;;;4966808;28;19918;-76
2021/03/15 01:16:40;;;;;;;;;;;3.50;99.90;;;;;;4956679;28;20353;-76
2021/03/15 01:19:06;;;;;;;;;;;3.50;99.90;;;;;;4955226;28;19914;-76
2021/03/15 01:21:33;;;;;;;;;;;3.50;99.90;;;;;;4965089;28;19918;-76
2021/03/15 01:23:59;;;;;;;;;;;3.50;99.90;;;;;;4945046;28;19920;-76
2021/03/15 01:26:25;;;;;;;;;;;3.50;99.90;;;;;;4960974;28;19910;-76
2021/03/15 01:28:51;;;;;;;;;;;3.50;99.90;;;;;;4955928;28;19917;-76
2021/03/15 01:31:19;;;;;;;;;;;3.60;99.90;;;;;;4945146;28;19914;-76
2021/03/15 01:33:46;;;;;;;;;;;3.60;99.90;;;;;;4966591;28;20064;-76
2021/03/15 01:36:12;;;;;;;;;;;3.60;99.90;;;;;;4952102;28;19925;-76
2021/03/15 01:38:37;;;;;;;;;;;3.60;99.90;;;;;;4969039;28;19910;-76
2021/03/15 01:41:08;;;;;;;;;;;3.60;99.90;;;;;;4967588;28;19914;-76
2021/03/15 01:43:33;;;;;;;;;;;3.60;99.90;;;;;;4965929;28;19910;-76
2021/03/15 01:45:59;;;;;;;;;;;3.60;99.90;;;;;;4945361;28;20324;-76
2021/03/15 01:48:24;;;;;;;;;;;3.60;99.90;;;;;;4956275;28;20073;-76
2021/03/15 01:50:50;;;;;;;;;;;3.50;99.90;;;;;;4942381;28;19910;-76
2021/03/15 01:53:16;;;;;;;;;;;3.50;99.90;;;;;;4964988;28;19925;-76
2021/03/15 01:55:47;;;;;;;;;;;3.50;99.90;;;;;;4950422;28;19925;-76
2021/03/15 01:58:13;;;;;;;;;;;3.50;99.90;;;;;;4947160;28;20061;-76
2021/03/15 02:00:41;;;;;;;;;;;3.50;99.90;;;;;;4967231;28;20041;-76
2021/03/15 02:03:07;;;;;;;;;;;3.50;99.90;;;;;;4942151;28;20537;-76
2021/03/15 02:05:33;;;;;;;;;;;3.50;99.90;;;;;;4956286;28;19999;-76
2021/03/15 02:08:01;;;;;;;;;;;3.40;99.90;;;;;;4956141;28;20029;-76
2021/03/15 02:10:27;;;;;;;;;;;3.50;99.90;;;;;;4957638;28;19914;-76
2021/03/15 02:12:52;;;;;;;;;;;3.50;99.90;;;;;;4957214;28;19985;-76
2021/03/15 02:15:18;;;;;;;;;;;3.50;99.90;;;;;;4958974;28;20380;-76
2021/03/15 02:17:52;;;;;;;;;;;3.50;99.90;;;;;;4961615;28;19937;-76
2021/03/15 02:20:24;;;;;;;;;;;3.50;99.90;;;;;;4951502;28;19910;-76
2021/03/15 02:22:50;;;;;;;;;;;3.60;99.90;;;;;;4965972;28;19968;-76
2021/03/15 02:25:34;;;;;;;;;;;3.70;99.90;;;;;;4965614;28;19926;-76
2021/03/15 02:27:59;;;;;;;;;;;3.60;99.90;;;;;;4965964;28;19997;-76
2021/03/15 02:30:36;;;;;;;;;;;3.70;99.90;;;;;;4966275;28;19918;-76
2021/03/15 02:33:21;;;;;;;;;;;3.80;99.90;;;;;;4940573;28;19921;-76
2021/03/15 02:35:46;;;;;;;;;;;3.80;99.90;;;;;;4957596;28;20009;-76
2021/03/15 02:38:12;;;;;;;;;;;3.90;99.90;;;;;;4941579;28;20470;-76
2021/03/15 02:40:39;;;;;;;;;;;3.90;99.90;;;;;;4937066;28;19918;-76
2021/03/15 02:43:06;;;;;;;;;;;3.90;99.90;;;;;;4936627;28;19918;-76
2021/03/15 02:45:32;;;;;;;;;;;3.90;99.90;;;;;;4937005;28;19918;-76
2021/03/15 02:47:58;;;;;;;;;;;3.90;99.90;;;;;;4941191;28;19925;-76
2021/03/15 02:50:26;;;;;;;;;;;3.90;99.90;;;;;;4939290;28;19922;-76
2021/03/15 02:52:52;;;;;;;;;;;4.00;99.90;;;;;;4948412;28;19910;-76
2021/03/15 02:55:19;;;;;;;;;;;4.00;99.90;;;;;;4944997;28;19910;-76
2021/03/15 02:57:46;;;;;;;;;;;4.00;99.90;;;;;;4947711;28;19910;-76
2021/03/15 03:00:13;;;;;;;;;;;4.00;99.90;;;;;;4960245;28;19961;-76
2021/03/15 03:02:42;;;;;;;;;;;4.00;99.90;;;;;;4957120;28;19937;-76
2021/03/15 03:05:10;;;;;;;;;;;4.00;99.90;;;;;;4948088;28;19967;-76
2021/03/15 03:07:40;;;;;;;;;;;4.00;99.90;;;;;;4960683;28;19918;-77
2021/03/15 03:10:06;;;;;;;;;;;4.10;99.90;;;;;;4957303;28;19918;-77
2021/03/15 03:12:34;;;;;;;;;;;4.10;99.90;;;;;;4956153;28;19925;-76
2021/03/15 03:15:01;;;;;;;;;;;4.10;99.90;;;;;;4934812;28;19982;-77
2021/03/15 03:17:29;;;;;;;;;;;4.10;99.90;;;;;;4937237;28;19918;-77
2021/03/15 03:19:54;;;;;;;;;;;4.10;99.90;;;;;;4937494;28;19922;-77
2021/03/15 03:22:20;;;;;;;;;;;4.10;99.90;;;;;;4946037;28;20016;-77
2021/03/15 03:24:45;;;;;;;;;;;4.10;99.90;;;;;;4938460;28;19918;-76
2021/03/15 03:27:12;;;;;;;;;;;4.10;99.90;;;;;;4936827;28;19996;-77
2021/03/15 03:29:40;;;;;;;;;;;4.10;99.90;;;;;;4935179;28;19918;-77
2021/03/15 03:32:05;;;;;;;;;;;4.10;99.90;;;;;;4955439;28;19921;-76
2021/03/15 03:34:31;;;;;;;;;;;4.10;99.90;;;;;;4960178;28;19926;-76
2021/03/15 03:36:59;;;;;;;;;;;4.10;99.90;;;;;;4966013;28;20012;-77
2021/03/15 03:39:24;;;;;;;;;;;4.10;99.90;;;;;;4965324;28;20009;-77
2021/03/15 03:41:52;;;;;;;;;;;4.10;99.90;;;;;;4965296;28;20379;-77
2021/03/15 03:44:18;;;;;;;;;;;4.10;99.90;;;;;;4965161;28;20009;-76
2021/03/15 03:46:46;;;;;;;;;;;4.10;99.90;;;;;;4962587;28;20017;-77
2021/03/15 03:49:11;;;;;;;;;;;4.10;99.90;;;;;;4954863;28;20032;-76
2021/03/15 03:51:38;;;;;;;;;;;4.10;99.90;;;;;;4935390;28;20348;-77
2021/03/15 03:54:17;;;;;;;;;;;4.20;99.90;;;;;;4935795;28;20039;-77
2021/03/15 03:56:49;;;;;;;;;;;4.10;99.90;;;;;;4933496;28;20625;-77
2021/03/15 03:59:15;;;;;;;;;;;4.10;99.90;;;;;;4955154;28;19918;-77
2021/03/15 04:01:41;;;;;;;;;;;4.20;99.90;;;;;;4934321;28;19918;-76
2021/03/15 04:04:09;;;;;;;;;;;4.10;99.90;;;;;;4954367;28;19922;-77
2021/03/15 04:06:35;;;;;;;;;;;4.20;99.90;;;;;;4953877;28;19914;-77
2021/03/15 04:09:01;;;;;;;;;;;4.20;99.90;;;;;;4925279;28;19918;-77
2021/03/15 04:11:30;;;;;;;;;;;4.20;99.90;;;;;;4925165;28;19945;-77
2021/03/15 04:13:55;;;;;;;;;;;4.20;99.90;;;;;;4934387;28;19914;-77
2021/03/15 04:16:34;;;;;;;;;;;4.20;99.90;;;;;;4955273;28;19917;-77
2021/03/15 04:19:02;;;;;;;;;;;4.20;99.90;;;;;;4967787;28;20396;-77
2021/03/15 04:21:28;;;;;;;;;;;4.20;99.90;;;;;;4968134;28;20471;-77
2021/03/15 04:23:54;;;;;;;;;;;4.20;99.90;;;;;;4952458;28;19914;-77
2021/03/15 04:26:22;;;;;;;;;;;4.20;99.90;;;;;;4949074;28;19972;-78
2021/03/15 04:28:48;;;;;;;;;;;4.20;99.90;;;;;;4939330;28;19914;-78
2021/03/15 04:31:13;;;;;;;;;;;4.20;99.90;;;;;;4938277;28;20347;-78
2021/03/15 04:33:39;;;;;;;;;;;4.20;99.90;;;;;;4943751;28;20060;-78
2021/03/15 04:36:08;;;;;;;;;;;4.10;99.90;;;;;;4958030;28;19914;-78
2021/03/15 04:38:33;;;;;;;;;;;4.10;99.90;;;;;;4940532;28;19921;-78
2021/03/15 04:40:59;;;;;;;;;;;4.10;99.90;;;;;;4939021;28;19914;-78
2021/03/15 04:43:25;;;;;;;;;;;4.10;99.90;;;;;;4938607;28;19918;-77
2021/03/15 04:45:50;;;;;;;;;;;4.10;99.90;;;;;;4937795;28;20340;-77
2021/03/15 04:48:26;;;;;;;;;;;4.10;99.90;;;;;;4926135;28;19925;-78
2021/03/15 04:50:59;;;;;;;;;;;4.10;99.90;;;;;;4958491;28;19914;-77
2021/03/15 04:53:24;;;;;;;;;;;4.10;99.90;;;;;;4938445;28;20331;-78
2021/03/15 04:55:50;;;;;;;;;;;4.10;99.90;;;;;;4939626;28;19915;-77
2021/03/15 04:58:16;;;;;;;;;;;4.10;99.90;;;;;;4959137;28;19918;-78
2021/03/15 05:00:43;;;;;;;;;;;4.10;99.90;;;;;;4938779;28;19918;-78
2021/03/15 05:03:11;;;;;;;;;;;4.10;99.90;;;;;;4930077;28;19965;-77
2021/03/15 05:05:37;;;;;;;;;;;4.10;99.90;;;;;;4939290;28;19925;-77
2021/03/15 05:08:05;;;;;;;;;;;4.10;99.90;;;;;;4939582;28;19961;-77
2021/03/15 05:10:31;;;;;;;;;;;4.20;99.90;;;;;;4939369;28;19922;-77
2021/03/15 05:12:57;;;;;;;;;;;4.10;99.90;;;;;;4926590;28;19914;-77
2021/03/15 05:15:22;;;;;;;;;;;4.20;99.90;;;;;;4950608;28;19918;-78
2021/03/15 05:17:50;;;;;;;;;;;4.20;99.90;;;;;;4967596;28;20408;-77
2021/03/15 05:20:16;;;;;;;;;;;4.10;99.90;;;;;;4943579;28;19946;-77
2021/03/15 05:22:42;;;;;;;;;;;4.20;99.90;;;;;;4938611;28;20046;-77
2021/03/15 05:25:11;;;;;;;;;;;4.20;99.90;;;;;;4939402;28;19993;-77
2021/03/15 05:27:36;;;;;;;;;;;4.20;99.90;;;;;;4938373;28;20319;-77
2021/03/15 05:30:07;;;;;;;;;;;4.20;99.90;;;;;;4945549;28;19922;-77
2021/03/15 05:32:35;;;;;;;;;;;4.20;99.90;;;;;;4957635;28;19929;-78
2021/03/15 05:35:01;;;;;;;;;;;4.20;99.90;;;;;;4943010;28;19928;-77
2021/03/15 05:37:26;;;;;;;;;;;4.20;99.90;;;;;;4967598;28;20385;-78
2021/03/15 05:39:52;;;;;;;;;;;4.30;99.90;;;;;;4960700;28;19914;-78
2021/03/15 05:42:17;;;;;;;;;;;4.30;99.90;;;;;;4945990;28;19932;-77
2021/03/15 05:44:43;;;;;;;;;;;4.30;99.90;;;;;;4940267;28;19914;-77
2021/03/15 05:47:27;;;;;;;;;;;4.30;99.90;;;;;;4938855;28;19940;-77
2021/03/15 05:49:56;;;;;;;;;;;4.40;99.90;;;;;;4956818;28;20540;-78
2021/03/15 05:52:26;;;;;;;;;;;4.30;99.90;;;;;;4957428;28;19917;-77
2021/03/15 05:55:11;;;;;;;;;;;4.40;99.90;;;;;;4956535;28;20469;-78
2021/03/15 05:57:42;;;;;;;;;;;4.40;99.90;;;;;;4956396;28;20483;-78
2021/03/15 06:00:14;;;;;;;;;;;4.40;99.90;;;;;;4942347;28;19910;-78
2021/03/15 06:02:42;;;;;;;;;;;4.40;99.90;;;;;;4967219;28;19968;-77
2021/03/15 06:05:25;;;;;;;;;;;4.40;99.90;;;;;;4940211;28;19938;-78
2021/03/15 06:07:56;;;;;;;;;;;4.40;99.90;;;;;;4956870;28;20004;-77
2021/03/15 06:10:21;;;;;;;;;;;4.40;99.90;;;;;;4937063;28;19929;-78
2021/03/15 06:12:49;;;;;;;;;;;4.40;99.90;;;;;;4956550;28;19918;-78
2021/03/15 06:15:15;;;;;;;;;;;4.40;99.90;;;;;;4937876;28;19924;-77
2021/03/15 06:17:41;;;;;;;;;;;4.50;99.90;;;;;;4936007;28;19915;-78
2021/03/15 06:20:06;;;;;;;;;;;4.50;99.90;;;;;;4937594;28;19918;-78
2021/03/15 06:22:32;;;;;;;;;;;4.50;99.90;;;;;;4941602;28;19918;-77
2021/03/15 06:25:02;;;;;;;;;;;4.50;99.90;;;;;;4936472;28;19925;-77
2021/03/15 06:27:28;;;;;;;;;;;4.50;99.90;;;;;;4954053;28;20116;-77
2021/03/15 06:29:56;;;;;;;;;;;4.50;99.90;;;;;;4942131;28;19910;-78
2021/03/15 06:32:23;;;;;;;;;;;4.60;99.90;;;;;;4957318;28;19935;-78
2021/03/15 06:34:49;;;;;;;;;;;4.60;99.90;;;;;;4937818;28;19914;-77
2021/03/15 06:37:16;;;;;;;;;;;4.60;99.90;;;;;;4937961;28;20320;-78
2021/03/15 06:39:41;;;;;;;;;;;4.70;99.90;;;;;;4955731;28;19981;-78
2021/03/15 06:42:08;;;;;;;;;;;4.60;99.90;;;;;;4934981;28;19922;-77
2021/03/15 06:44:33;;;;;;;;;;;4.60;99.90;;;;;;4936984;28;20240;-78
2021/03/15 06:46:59;;;;;;;;;;;4.70;99.90;;;;;;4937202;28;19942;-77
2021/03/15 06:49:24;;;;;;;;;;;4.60;99.90;;;;;;4956762;28;20409;-77
2021/03/15 06:52:19;;;;;;;;;;;4.70;99.90;;;;;;4939960;28;19977;-77
2021/03/15 06:54:45;;;;;;;;;;;4.60;99.90;;;;;;4935125;28;19926;-78
2021/03/15 06:57:11;;;;;;;;;;;4.70;99.90;;;;;;4955510;28;19949;-77
2021/03/15 07:00:09;;;;;;;;;;;4.70;99.90;;;;;;4944360;28;20608;-77
2021/03/15 07:02:34;;;;;;;;;;;4.70;99.90;;;;;;4910372;28;19926;-77
2021/03/15 07:05:28;;;;;;;;;;;4.70;99.90;;;;;;4957005;28;20520;-78
2021/03/15 07:07:58;;;;;;;;;;;4.80;99.90;;;;;;4953738;28;19914;-77
2021/03/15 07:10:25;;;;;;;;;;;4.80;99.90;;;;;;4946067;28;20538;-77
2021/03/15 07:13:06;;;;;;;;;;;4.80;99.90;;;;;;4963075;28;19973;-78
2021/03/15 07:15:34;;;;;;;;;;;4.80;99.90;;;;;;4955078;28;19957;-77
2021/03/15 07:18:19;;;;;;;;;;;4.80;99.90;;;;;;4936115;28;20020;-77
2021/03/15 07:20:45;;;;;;;;;;;4.80;99.90;;;;;;4956645;28;20011;-78
2021/03/15 07:23:13;;;;;;;;;;;4.90;99.90;;;;;;4955111;28;19922;-77
2021/03/15 07:25:41;;;;;;;;;;;4.90;99.90;;;;;;4958483;28;20067;-78
2021/03/15 07:28:07;;;;;;;;;;;5.00;99.90;;;;;;4951246;28;20291;-77
2021/03/15 07:30:36;;;;;;;;;;;5.00;99.90;;;;;;4935344;28;19914;-77
2021/03/15 07:33:07;;;;;;;;;;;5.10;99.90;;;;;;4962543;28;19918;-77
2021/03/15 07:35:36;;;;;;;;;;;5.10;99.90;;;;;;4943315;28;19995;-77
2021/03/15 07:38:02;;;;;;;;;;;5.20;99.90;;;;;;4963710;28;20016;-77
2021/03/15 07:40:40;;;;;;;;;;;5.30;99.90;;;;;;4963505;28;19998;-78
2021/03/15 07:43:16;;;;;;;;;;;5.30;99.90;;;;;;4944800;28;19913;-78
2021/03/15 07:45:43;;;;;;;;;;;5.40;99.90;;;;;;4962991;28;19910;-77
2021/03/15 07:48:15;;;;;;;;;;;5.40;99.90;;;;;;4961898;28;20336;-77
2021/03/15 07:51:14;;;;;;;;;;;5.50;99.90;;;;;;4947206;28;20057;-77
2021/03/15 07:53:49;;;;;;;;;;;5.50;99.90;;;;;;4914475;28;20244;-77
2021/03/15 07:56:18;;;;;;;;;;;5.50;99.90;;;;;;4968506;28;19910;-77
2021/03/15 07:58:44;;;;;;;;;;;5.60;99.90;;;;;;4967611;28;22237;-78
2021/03/15 08:01:16;;;;;;;;;;;5.60;99.90;;;;;;4967000;28;19913;-78
2021/03/15 08:03:42;;;;;;;;;;;5.60;99.90;;;;;;4967007;28;19926;-77
2021/03/15 08:06:08;;;;;;;;;;;5.60;99.90;;;;;;4279333;28;10000753;-78
2021/03/15 08:08:33;;;;;;;;;;;5.60;99.90;;;;;;4968203;28;19924;-78
2021/03/15 08:10:59;;;;;;;;;;;5.60;99.90;;;;;;4951036;28;20342;-78
2021/03/15 08:13:25;;;;;;;;;;;5.60;99.90;;;;;;4965932;28;19910;-78
2021/03/15 08:15:51;;;;;;;;;;;5.50;99.90;;;;;;4949221;28;20021;-78
2021/03/15 08:18:26;;;;;;;;;;;5.40;99.90;;;;;;4966657;28;21412;-80
2021/03/15 08:20:53;;;;;;;;;;;5.40;99.90;;;;;;4944959;28;20664;-77
2021/03/15 08:23:19;;;;;;;;;;;5.30;99.90;;;;;;4966041;28;19917;-78
2021/03/15 08:25:48;;;;;;;;;;;5.20;99.90;;;;;;4934439;28;19929;-77
2021/03/15 08:28:13;;;;;;;;;;;5.20;99.90;;;;;;4963996;28;19929;-78
2021/03/15 08:30:44;;;;;;;;;;;5.20;99.90;;;;;;4965013;28;20000;-77
2021/03/15 08:33:12;;;;;;;;;;;5.20;99.90;;;;;;4965338;28;20347;-77
2021/03/15 08:35:37;;;;;;;;;;;5.20;99.90;;;;;;4965406;28;19917;-77
2021/03/15 08:38:03;;;;;;;;;;;5.10;99.90;;;;;;4947378;28;20385;-77
2021/03/15 08:40:47;;;;;;;;;;;5.10;99.90;;;;;;4966149;28;20407;-77
2021/03/15 08:43:22;;;;;;;;;;;5.00;99.90;;;;;;4966465;28;19914;-77
2021/03/15 08:45:48;;;;;;;;;;;5.10;99.90;;;;;;4946575;28;19937;-77
2021/03/15 08:48:16;;;;;;;;;;;5.00;99.90;;;;;;4966332;28;20366;-77
2021/03/15 08:50:42;;;;;;;;;;;5.00;99.90;;;;;;4964157;28;19918;-77
2021/03/15 08:53:09;;;;;;;;;;;5.00;99.90;;;;;;4947115;28;19981;-77
2021/03/15 08:55:47;;;;;;;;;;;5.00;99.90;;;;;;4948890;28;19916;-77
2021/03/15 08:58:31;;;;;;;;;;;5.00;99.90;;;;;;4964796;28;19929;-76
2021/03/15 09:00:57;;;;;;;;;;;5.00;99.90;;;;;;4965075;28;19929;-77
2021/03/15 09:03:49;;;;;;;;;;;5.10;99.90;;;;;;4948555;28;19918;-77
2021/03/15 09:06:40;;;;;;;;;;;5.20;99.90;;;;;;4927111;28;19941;-77
2021/03/15 09:09:12;;;;;;;;;;;5.30;99.90;;;;;;4964325;28;20165;-77
2021/03/15 09:11:38;;;;;;;;;;;5.50;99.90;;;;;;4946745;28;20398;-77
2021/03/15 09:14:13;;;;;;;;;;;5.40;99.90;;;;;;4947816;28;19972;-77
2021/03/15 09:16:41;;;;;;;;;;;5.50;99.90;;;;;;4948409;28;19914;-76
2021/03/15 09:19:23;;;;;;;;;;;5.60;99.90;;;;;;4965100;28;19917;-77
2021/03/15 09:21:50;;;;;;;;;;;5.60;99.90;;;;;;4965361;28;19930;-76
2021/03/15 09:24:32;;;;;;;;;;;5.60;99.90;;;;;;4950914;28;19992;-77
2021/03/15 09:27:00;;;;;;;;;;;5.60;99.90;;;;;;4946535;28;19922;-76
2021/03/15 09:29:29;;;;;;;;;;;5.60;99.90;;;;;;4946642;28;19910;-77
2021/03/15 09:31:59;;;;;;;;;;;5.70;99.90;;;;;;4948854;28;19980;-77
2021/03/15 09:34:24;;;;;;;;;;;5.80;99.90;;;;;;4947306;28;19918;-77
2021/03/15 09:36:53;;;;;;;;;;;5.90;99.90;;;;;;4947163;28;19910;-77
2021/03/15 09:39:21;;;;;;;;;;;5.90;99.90;;;;;;4944714;28;20010;-76
2021/03/15 09:41:47;;;;;;;;;;;5.90;99.90;;;;;;4946901;28;20346;-76
2021/03/15 09:44:13;;;;;;;;;;;5.90;99.90;;;;;;4946621;28;19976;-76
2021/03/15 09:46:39;;;;;;;;;;;5.90;99.90;;;;;;4964264;28;20050;-76
2021/03/15 09:49:05;;;;;;;;;;;5.80;99.90;;;;;;4945670;28;20013;-76
2021/03/15 09:51:31;;;;;;;;;;;5.80;99.90;;;;;;4965797;28;20001;-76
2021/03/15 09:53:59;;;;;;;;;;;5.80;99.90;;;;;;4966373;28;19914;-76
2021/03/15 09:56:25;;;;;;;;;;;5.80;99.90;;;;;;4965646;28;19914;-75
2021/03/15 09:58:51;;;;;;;;;;;5.80;99.90;;;;;;4965967;28;19932;-75
2021/03/15 10:01:17;;;;;;;;;;;5.80;99.90;;;;;;4965173;28;19922;-75
2021/03/15 10:03:50;;;;;;;;;;;5.90;99.90;;;;;;4965794;28;20008;-75
2021/03/15 10:06:19;;;;;;;;;;;5.90;99.90;;;;;;4966590;28;19960;-75
2021/03/15 10:08:50;;;;;;;;;;;6.00;99.90;;;;;;4949899;28;19913;-75
2021/03/15 10:11:18;;;;;;;;;;;6.10;99.90;;;;;;4947074;28;20472;-75
2021/03/15 10:14:04;;;;;;;;;;;6.10;99.90;;;;;;4947939;28;19914;-75
2021/03/15 10:16:32;;;;;;;;;;;6.20;99.90;;;;;;4947992;28;19910;-75
2021/03/15 10:18:57;;;;;;;;;;;6.30;99.90;;;;;;4951461;28;19910;-75
2021/03/15 10:21:32;;;;;;;;;;;6.30;99.90;;;;;;4965590;28;20005;-75
2021/03/15 10:23:59;;;;;;;;;;;6.40;99.90;;;;;;4966844;28;19921;-75
2021/03/15 10:26:25;;;;;;;;;;;6.50;99.90;;;;;;4966136;28;20417;-75
2021/03/15 10:28:51;;;;;;;;;;;6.50;99.90;;;;;;4965438;28;19968;-75
2021/03/15 10:31:22;;;;;;;;;;;6.50;99.90;;;;;;4966753;28;20029;-75
2021/03/15 10:33:48;;;;;;;;;;;6.50;99.90;;;;;;4949032;28;19920;-75
2021/03/15 10:36:20;;;;;;;;;;;6.60;99.90;;;;;;4967570;28;19922;-75
2021/03/15 10:38:48;;;;;;;;;;;6.70;99.90;;;;;;4945953;28;19914;-74
2021/03/15 10:41:14;;;;;;;;;;;6.80;99.90;;;;;;4948980;28;20383;-75
2021/03/15 10:43:41;;;;;;;;;;;6.90;99.90;;;;;;4949726;28;19989;-74
2021/03/15 10:46:21;;;;;;;;;;;7.00;99.90;;;;;;4964861;28;19918;-75
2021/03/15 10:48:49;;;;;;;;;;;7.10;99.90;;;;;;4965207;28;19918;-75
2021/03/15 10:51:14;;;;;;;;;;;7.10;99.90;;;;;;4947020;28;19953;-75
2021/03/15 10:53:44;;;;;;;;;;;7.20;99.90;;;;;;4965275;28;20502;-75
2021/03/15 10:56:15;;;;;;;;;;;7.30;99.90;;;;;;4965742;28;19921;-74
2021/03/15 10:58:40;;;;;;;;;;;7.40;99.10;;;;;;4966280;28;19910;-75
2021/03/15 11:01:08;;;;;;;;;;;7.50;99.90;;;;;;4967362;28;20355;-73
2021/03/15 11:03:38;;;;;;;;;;;7.50;99.30;;;;;;4965069;28;19928;-74
2021/03/15 11:06:12;;;;;;;;;;;7.60;99.90;;;;;;4966485;28;19910;-74
2021/03/15 11:08:38;;;;;;;;;;;7.70;99.90;;;;;;4965909;28;19921;-75
2021/03/15 11:11:16;;;;;;;;;;;7.90;99.90;;;;;;4965221;28;19910;-75
2021/03/15 11:13:45;;;;;;;;;;;8.10;99.90;;;;;;4948989;28;20008;-74
2021/03/15 11:16:23;;;;;;;;;;;8.30;95.20;;;;;;4948766;28;19921;-73
2021/03/15 11:18:49;;;;;;;;;;;8.50;99.90;;;;;;4946617;28;19929;-73
2021/03/15 11:21:15;;;;;;;;;;;8.70;93.30;;;;;;4964453;28;20441;-73
2021/03/15 11:23:41;;;;;;;;;;;8.80;95.00;;;;;;4948771;28;19973;-73
2021/03/15 11:26:10;;;;;;;;;;;8.90;93.60;;;;;;4936459;28;19918;-73
2021/03/15 11:28:37;;;;;;;;;;;9.00;91.00;;;;;;4972122;28;21995;-73
2021/03/15 11:31:03;;;;;;;;;;;9.00;91.90;;;;;;4943571;28;19921;-73
2021/03/15 11:33:28;;;;;;;;;;;8.90;88.80;;;;;;4971340;28;19910;-73
2021/03/15 11:35:54;;;;;;;;;;;8.90;90.60;;;;;;4970204;28;19918;-73
2021/03/15 11:38:23;;;;;;;;;;;8.90;90.40;;;;;;4954532;28;19985;-74
2021/03/15 11:40:51;;;;;;;;;;;8.90;89.60;;;;;;4970983;28;19921;-75
2021/03/15 11:43:16;;;;;;;;;;;9.00;90.90;;;;;;4972087;28;19925;-73
2021/03/15 11:45:42;;;;;;;;;;;9.00;86.80;;;;;;4955020;28;20291;-73
2021/03/15 11:48:10;;;;;;;;;;;9.10;90.00;;;;;;4951484;28;20371;-73
2021/03/15 11:50:38;;;;;;;;;;;9.10;88.90;;;;;;4970104;28;20455;-75
2021/03/15 11:53:04;;;;;;;;;;;9.00;90.60;;;;;;4970931;28;19929;-73
2021/03/15 11:55:30;;;;;;;;;;;8.90;92.60;;;;;;4971765;28;19914;-76
2021/03/15 11:57:55;;;;;;;;;;;8.60;98.90;;;;;;4940060;28;19922;-74
2021/03/15 12:00:21;;;;;;;;;;;8.00;99.90;;;;;;4970902;28;19914;-76
2021/03/15 12:02:47;;;;;;;;;;;7.90;99.90;;;;;;4967052;28;19981;-74
2021/03/15 12:05:13;;;;;;;;;;;7.80;99.90;;;;;;4954853;28;19918;-74
2021/03/15 12:07:39;;;;;;;;;;;7.70;99.90;;;;;;4971265;28;20315;-74
2021/03/15 12:10:05;;;;;;;;;;;7.80;99.90;;;;;;4955093;28;19910;-74
2021/03/15 12:12:31;;;;;;;;;;;7.80;99.90;;;;;;4969675;28;19913;-74
2021/03/15 12:14:59;;;;;;;;;;;8.00;99.90;;;;;;4971851;28;19918;-74
2021/03/15 12:17:25;;;;;;;;;;;8.10;99.90;;;;;;4970595;28;20048;-73
2021/03/15 12:19:50;;;;;;;;;;;8.10;99.90;;;;;;4971277;28;20466;-74
2021/03/15 12:22:16;;;;;;;;;;;8.30;99.90;;;;;;4972675;28;21794;-74
2021/03/15 12:24:41;;;;;;;;;;;8.40;99.90;;;;;;4972648;28;20302;-74
2021/03/15 12:27:07;;;;;;;;;;;8.70;99.90;;;;;;4972163;28;19957;-74
2021/03/15 12:29:37;;;;;;;;;;;8.90;99.90;;;;;;4941837;28;20358;-74
2021/03/15 12:32:02;;;;;;;;;;;9.10;99.90;;;;;;4969728;28;20020;-74
2021/03/15 12:34:30;;;;;;;;;;;9.40;99.90;;;;;;4970543;28;19961;-73
2021/03/15 12:36:56;;;;;;;;;;;9.50;97.60;;;;;;4970404;28;20357;-74
2021/03/15 12:39:21;;;;;;;;;;;9.50;93.60;;;;;;4949027;28;19910;-74
2021/03/15 12:41:47;;;;;;;;;;;9.60;94.60;;;;;;4953450;28;19982;-74
2021/03/15 12:44:12;;;;;;;;;;;9.60;91.90;;;;;;4969253;28;19992;-74
2021/03/15 12:46:40;;;;;;;;;;;9.60;91.90;;;;;;4968261;28;19910;-74
2021/03/15 12:49:06;;;;;;;;;;;9.90;97.80;;;;;;4966967;28;19918;-74
2021/03/15 12:51:34;;;;;;;;;;;10.10;96.00;;;;;;4952171;28;19909;-74
2021/03/15 12:54:03;;;;;;;;;;;10.00;93.90;;;;;;4968557;28;19914;-74
2021/03/15 12:56:29;;;;;;;;;;;10.10;92.90;;;;;;4948578;28;21741;-74
2021/03/15 12:58:54;;;;;;;;;;;9.80;91.90;;;;;;4967128;28;19918;-73
2021/03/15 13:01:20;;;;;;;;;;;9.70;92.50;;;;;;4968501;28;20544;-73
2021/03/15 13:03:45;;;;;;;;;;;9.60;91.50;;;;;;4968526;28;19929;-74
2021/03/15 13:06:11;;;;;;;;;;;9.40;93.30;;;;;;4968271;28;19981;-73
2021/03/15 13:08:36;;;;;;;;;;;9.40;93.30;;;;;;4952447;28;19917;-73
2021/03/15 13:11:02;;;;;;;;;;;9.50;94.10;;;;;;4968170;28;20355;-73
2021/03/15 13:13:30;;;;;;;;;;;9.50;97.30;;;;;;4948258;28;19909;-73
2021/03/15 13:15:55;;;;;;;;;;;9.40;92.00;;;;;;4937286;28;19922;-73
2021/03/15 13:18:21;;;;;;;;;;;9.40;92.30;;;;;;4967188;28;19929;-75
2021/03/15 13:20:47;;;;;;;;;;;9.40;94.40;;;;;;4948643;28;19914;-73
2021/03/15 13:23:14;;;;;;;;;;;9.40;90.10;;;;;;4965357;28;20405;-72
2021/03/15 13:25:40;;;;;;;;;;;9.40;87.70;;;;;;4966722;28;20342;-73
2021/03/15 13:28:05;;;;;;;;;;;9.40;86.70;;;;;;4968311;28;19918;-73
2021/03/15 13:30:32;;;;;;;;;;;9.40;90.30;;;;;;4967147;28;20271;-73
2021/03/15 13:32:57;;;;;;;;;;;9.40;89.80;;;;;;4966112;28;19926;-73
2021/03/15 13:35:25;;;;;;;;;;;9.40;89.30;;;;;;4950737;28;19914;-73
2021/03/15 13:37:53;;;;;;;;;;;9.30;83.90;;;;;;4967133;28;19917;-73
2021/03/15 13:40:19;;;;;;;;;;;9.20;87.90;;;;;;4967701;28;19918;-73
2021/03/15 13:42:44;;;;;;;;;;;9.00;86.00;;;;;;4949167;28;19928;-74
2021/03/15 13:45:12;;;;;;;;;;;9.00;87.70;;;;;;4950372;28;19934;-72
2021/03/15 13:47:40;;;;;;;;;;;9.00;90.30;;;;;;4966634;28;19910;-73
2021/03/15 13:50:08;;;;;;;;;;;8.90;93.60;;;;;;4947964;28;19980;-73
2021/03/15 13:52:34;;;;;;;;;;;8.70;92.30;;;;;;4966828;28;19922;-73
2021/03/15 13:55:02;;;;;;;;;;;8.60;94.40;;;;;;4966438;28;19918;-74
2021/03/15 13:57:27;;;;;;;;;;;8.50;94.80;;;;;;4965293;28;20299;-73
2021/03/15 13:59:53;;;;;;;;;;;8.20;95.70;;;;;;4966866;28;19910;-73
2021/03/15 14:02:23;;;;;;;;;;;8.30;99.10;;;;;;4966410;28;20294;-73
2021/03/15 14:04:48;;;;;;;;;;;8.20;99.90;;;;;;4965125;28;19924;-73
2021/03/15 14:07:14;;;;;;;;;;;8.30;99.90;;;;;;4956533;28;20209;-73
2021/03/15 14:09:40;;;;;;;;;;;8.40;99.90;;;;;;4966137;28;19918;-73
2021/03/15 14:12:06;;;;;;;;;;;8.40;97.80;;;;;;4967033;28;19922;-73
2021/03/15 14:14:33;;;;;;;;;;;8.40;97.00;;;;;;4965410;28;20246;-73
2021/03/15 14:16:59;;;;;;;;;;;8.50;96.30;;;;;;4966315;28;19914;-73
2021/03/15 14:19:24;;;;;;;;;;;8.60;97.80;;;;;;4935116;28;19925;-73
2021/03/15 14:21:50;;;;;;;;;;;8.70;93.80;;;;;;4966242;28;20232;-73
2021/03/15 14:24:18;;;;;;;;;;;8.80;97.00;;;;;;4967165;28;20008;-73
2021/03/15 14:26:46;;;;;;;;;;;8.90;94.10;;;;;;4964784;28;19928;-73
2021/03/15 14:29:12;;;;;;;;;;;9.00;93.50;;;;;;4965558;28;20367;-73
2021/03/15 14:31:40;;;;;;;;;;;9.00;91.20;;;;;;4966143;28;20005;-76
2021/03/15 14:34:06;;;;;;;;;;;8.90;90.60;;;;;;4965255;28;20398;-76